Time;durP1;ratioP1;P1;durP2;ratioP2;P2;SDS_P1;SDS_P2;PMS_P1;PMS_P2;Temp;Humidity;BMP_temperature;BMP_pressure;BME280_temperature;BME280_humidity;BME280_pressure;Samples;Min_cycle;Max_cycle;Signal;HPM_P1;HPM_P2
2023/06/18 00:02:28;;;;;;;12.20;11.00;;;;;;;17.04;68.14;99813.13;131568;1254;107305;-86
2023/06/18 00:05:34;;;;;;;12.30;11.10;;;;;;;17.00;68.31;99813.83;131804;1254;108742;-86
2023/06/18 00:08:39;;;;;;;12.10;10.90;;;;;;;16.98;68.44;99809.21;132110;1254;105551;-86
2023/06/18 00:11:45;;;;;;;12.70;11.50;;;;;;;16.97;68.41;99807.06;131734;1257;107518;-86
2023/06/18 00:14:50;;;;;;;13.70;12.40;;;;;;;16.97;68.42;99804.16;131772;1251;107490;-86
2023/06/18 00:17:56;;;;;;;13.80;12.50;;;;;;;16.92;68.62;99809.14;131685;1254;107633;-86
2023/06/18 00:21:03;;;;;;;13.10;11.90;;;;;;;16.83;68.68;99809.54;131682;1250;106678;-86
2023/06/18 00:24:08;;;;;;;14.00;12.60;;;;;;;16.82;68.85;99810.58;131570;1253;107711;-86
2023/06/18 00:27:14;;;;;;;13.50;12.30;;;;;;;16.82;68.86;99810.80;131793;1254;107525;-86
2023/06/18 00:30:20;;;;;;;13.10;11.90;;;;;;;16.79;68.88;99813.55;131676;1250;107372;-86
2023/06/18 00:33:26;;;;;;;11.80;10.60;;;;;;;16.75;68.97;99810.69;131624;1251;107528;-86
2023/06/18 00:36:33;;;;;;;11.90;10.70;;;;;;;16.70;69.10;99808.27;131701;1251;107404;-86
2023/06/18 00:39:39;;;;;;;12.90;11.60;;;;;;;16.70;69.22;99808.65;131411;1256;107540;-86
2023/06/18 00:42:48;;;;;;;13.30;12.00;;;;;;;16.69;69.25;99808.35;131538;1254;106897;-86
2023/06/18 00:45:54;;;;;;;13.20;11.80;;;;;;;16.68;69.18;99812.67;131436;1250;107236;-86
2023/06/18 00:49:01;;;;;;;13.40;12.10;;;;;;;16.66;69.17;99816.69;131169;1257;107526;-87
2023/06/18 00:52:08;;;;;;;13.90;12.40;;;;;;;16.64;69.29;99813.41;131241;1255;107525;-85
2023/06/18 00:55:16;;;;;;;12.80;11.60;;;;;;;16.60;69.42;99813.67;131076;1251;108163;-86
2023/06/18 00:58:23;;;;;;;13.70;12.20;;;;;;;16.58;69.46;99814.88;131126;1257;107529;-86
2023/06/18 01:01:29;;;;;;;13.30;12.10;;;;;;;16.56;69.51;99818.60;131056;1254;107327;-86
2023/06/18 01:04:37;;;;;;;13.80;12.40;;;;;;;16.48;69.50;99820.98;131356;1255;107341;-87
2023/06/18 01:07:48;;;;;;;12.60;11.40;;;;;;;16.40;69.62;99819.17;131718;1254;107417;-87
2023/06/18 01:11:01;;;;;;;11.50;10.40;;;;;;;16.34;69.59;99820.06;131796;1254;107518;-87
2023/06/18 01:14:09;;;;;;;12.70;11.40;;;;;;;16.29;69.63;99817.64;131769;1251;107538;-87
2023/06/18 01:17:17;;;;;;;13.50;12.10;;;;;;;16.24;69.63;99819.83;131811;1251;109284;-86
2023/06/18 01:20:25;;;;;;;12.60;11.40;;;;;;;16.22;69.70;99821.80;131677;1251;107516;-86
2023/06/18 01:23:45;;;;;;;14.30;12.80;;;;;;;16.19;69.72;99821.09;131661;1254;107044;-86
2023/06/18 01:26:54;;;;;;;13.30;12.00;;;;;;;16.17;69.73;99829.07;131599;1251;107230;-85
2023/06/18 01:30:01;;;;;;;13.50;12.20;;;;;;;16.14;69.79;99833.64;131535;1256;108560;-86
2023/06/18 01:33:12;;;;;;;13.10;11.80;;;;;;;16.10;69.84;99841.95;131445;1254;108704;-86
2023/06/18 01:36:24;;;;;;;14.30;12.90;;;;;;;16.06;69.75;99843.76;131485;1256;107501;-86
2023/06/18 01:39:33;;;;;;;;;;;;;;;16.00;69.86;99841.65;131441;1250;107023;-86
2023/06/18 01:42:43;;;;;;;12.90;11.60;;;;;;;15.95;70.15;99847.30;131425;1255;107448;-87
2023/06/18 01:45:54;;;;;;;12.60;11.40;;;;;;;15.89;70.10;99852.60;131017;1267;107497;-86
2023/06/18 01:49:04;;;;;;;12.20;11.00;;;;;;;15.84;70.25;99857.27;131190;1254;107552;-86
2023/06/18 01:52:12;;;;;;;12.20;10.90;;;;;;;15.83;70.18;99857.07;131285;1266;106454;-86
2023/06/18 01:55:20;;;;;;;12.70;11.50;;;;;;;15.84;70.37;99858.98;131084;1256;107681;-86
2023/06/18 01:58:26;;;;;;;12.60;11.20;;;;;;;15.84;70.45;99855.55;131250;1250;107523;-86
2023/06/18 02:01:34;;;;;;;13.40;12.10;;;;;;;15.84;70.34;99856.98;131133;1256;107363;-86
2023/06/18 02:04:43;;;;;;;12.90;11.70;;;;;;;15.82;70.37;99862.04;131096;1256;107556;-86
2023/06/18 02:07:49;;;;;;;11.90;10.80;;;;;;;15.80;70.33;99861.94;131145;1257;156066;-86
2023/06/18 02:10:54;;;;;;;13.00;11.70;;;;;;;15.77;70.56;99859.02;131256;1256;107626;-86
2023/06/18 02:14:00;;;;;;;13.00;11.80;;;;;;;15.72;70.55;99855.45;131332;1256;107349;-86
2023/06/18 02:17:06;;;;;;;13.50;12.10;;;;;;;15.68;70.51;99855.08;131057;1253;107678;-85
2023/06/18 02:20:13;;;;;;;12.10;10.90;;;;;;;15.61;70.77;99855.36;130835;1260;107613;-86
2023/06/18 02:23:19;;;;;;;12.20;11.00;;;;;;;15.57;70.82;99857.82;131172;1256;108582;-85
2023/06/18 02:26:24;;;;;;;12.20;10.70;;;;;;;15.58;70.78;99863.33;131274;1252;107554;-86
2023/06/18 02:29:32;;;;;;;11.90;10.80;;;;;;;15.58;71.03;99867.67;131209;1256;107454;-85
2023/06/18 02:32:39;;;;;;;12.60;11.40;;;;;;;15.60;70.93;99868.02;131473;1255;107605;-87
2023/06/18 02:35:45;;;;;;;13.20;11.90;;;;;;;15.63;70.86;99873.30;131288;1251;107360;-87
2023/06/18 02:38:52;;;;;;;12.90;11.60;;;;;;;15.63;71.08;99873.39;131067;1251;107479;-87
2023/06/18 02:41:58;;;;;;;12.90;11.30;;;;;;;15.64;71.11;99870.11;131055;1257;107494;-87
2023/06/18 02:45:05;;;;;;;12.60;11.40;;;;;;;15.61;71.00;99872.76;131073;1253;107477;-87
2023/06/18 02:48:10;;;;;;;12.00;10.80;;;;;;;15.59;71.09;99881.79;131320;1251;107390;-87
2023/06/18 02:51:16;;;;;;;11.30;10.20;;;;;;;15.57;71.17;99890.64;131354;1256;107568;-87
2023/06/18 02:54:22;;;;;;;11.30;10.00;;;;;;;15.58;71.19;99891.63;131377;1257;108200;-88
2023/06/18 02:57:28;;;;;;;12.50;11.00;;;;;;;15.59;71.17;99895.80;131395;1251;107606;-87
2023/06/18 03:00:34;;;;;;;12.20;11.10;;;;;;;15.65;71.23;99892.34;131201;1258;107260;-87
2023/06/18 03:03:40;;;;;;;11.80;10.70;;;;;;;15.73;71.32;99894.45;131251;1260;107287;-87
2023/06/18 03:06:46;;;;;;;11.70;10.50;;;;;;;15.78;71.26;99893.79;131198;1251;107544;-87
2023/06/18 03:09:52;;;;;;;12.60;11.40;;;;;;;15.83;71.25;99896.86;131101;1253;107588;-87
2023/06/18 03:12:58;;;;;;;12.00;10.80;;;;;;;15.87;71.32;99895.92;131366;1250;107399;-87
2023/06/18 03:16:17;;;;;;;11.70;10.60;;;;;;;15.92;71.43;99899.52;131543;1255;107544;-87
2023/06/18 03:19:26;;;;;;;11.60;10.50;;;;;;;15.99;71.58;99891.29;132101;1254;106547;-86
2023/06/18 03:22:32;;;;;;;11.40;10.30;;;;;;;16.03;71.67;99890.52;132002;1250;107294;-87
2023/06/18 03:25:37;;;;;;;10.50;9.40;;;;;;;16.10;71.64;99885.80;131734;1254;106883;-87
2023/06/18 03:28:44;;;;;;;10.20;9.20;;;;;;;16.19;71.78;99885.52;131469;1256;107382;-87
2023/06/18 03:31:51;;;;;;;10.70;9.70;;;;;;;16.30;71.82;99884.45;131769;1255;107536;-87
2023/06/18 03:34:57;;;;;;;11.10;10.00;;;;;;;16.43;71.93;99884.27;131895;1257;107493;-87
2023/06/18 03:38:04;;;;;;;11.00;9.90;;;;;;;16.55;71.87;99886.02;131849;1251;107512;-88
2023/06/18 03:41:10;;;;;;;11.20;10.10;;;;;;;16.65;71.85;99890.77;132013;1251;107649;-87
2023/06/18 03:44:16;;;;;;;11.00;9.90;;;;;;;16.72;71.95;99891.10;131985;1251;107208;-87
2023/06/18 03:47:22;;;;;;;11.50;10.10;;;;;;;16.81;72.05;99889.06;131885;1250;108503;-87
2023/06/18 03:50:29;;;;;;;11.30;10.10;;;;;;;16.89;72.18;99891.30;132017;1256;107525;-87
2023/06/18 03:53:37;;;;;;;9.10;8.30;;;;;;;16.99;72.22;99892.48;131934;1254;107471;-87
2023/06/18 03:56:43;;;;;;;9.50;8.50;;;;;;;17.07;72.27;99893.21;131933;1254;107483;-87
2023/06/18 03:59:51;;;;;;;10.40;9.40;;;;;;;17.18;72.34;99891.36;131954;1251;107518;-87
2023/06/18 04:02:57;;;;;;;10.00;9.00;;;;;;;17.31;72.44;99888.39;131829;1264;107523;-87
2023/06/18 04:06:03;;;;;;;10.00;9.00;;;;;;;17.41;72.49;99889.11;131538;1250;107481;-87
2023/06/18 04:09:10;;;;;;;9.60;8.70;;;;;;;17.51;72.65;99892.20;131923;1257;107314;-87
2023/06/18 04:12:17;;;;;;;9.80;8.90;;;;;;;17.57;72.63;99893.13;131856;1256;107495;-86
2023/06/18 04:15:24;;;;;;;10.20;9.20;;;;;;;17.63;72.63;99894.88;131780;1256;107545;-86
2023/06/18 04:18:30;;;;;;;10.60;9.60;;;;;;;17.68;72.67;99893.16;131440;1251;107557;-86
2023/06/18 04:21:37;;;;;;;9.90;8.30;;;;;;;17.69;72.79;99896.03;131657;1250;107503;-86
2023/06/18 04:24:43;;;;;;;8.70;7.90;;;;;;;17.71;72.99;99899.60;131822;1251;107468;-87
2023/06/18 04:27:51;;;;;;;10.20;9.20;;;;;;;17.74;72.97;99891.92;132068;1256;107585;-88
2023/06/18 04:30:57;;;;;;;9.40;8.50;;;;;;;17.79;73.02;99896.23;131978;1256;107705;-88
2023/06/18 04:34:03;;;;;;;10.00;9.00;;;;;;;17.84;73.16;99901.58;131854;1250;107233;-87
2023/06/18 04:37:10;;;;;;;10.00;9.00;;;;;;;17.90;73.32;99906.39;131845;1256;107470;-86
2023/06/18 04:40:18;;;;;;;9.30;8.40;;;;;;;18.00;73.35;99909.16;131940;1256;106535;-86
2023/06/18 04:43:25;;;;;;;11.40;10.20;;;;;;;18.11;73.37;99907.27;131848;1256;107463;-86
2023/06/18 04:46:31;;;;;;;11.10;10.10;;;;;;;18.22;73.29;99913.55;131610;1250;107510;-85
2023/06/18 04:49:38;;;;;;;10.10;8.40;;;;;;;18.29;73.16;99912.33;131712;1254;107456;-86
2023/06/18 04:52:45;;;;;;;8.50;7.70;;;;;;;18.36;73.32;99915.84;131819;1250;108637;-86
2023/06/18 04:55:52;;;;;;;8.50;7.60;;;;;;;18.47;73.41;99919.38;131873;1256;107605;-87
2023/06/18 04:58:57;;;;;;;9.10;8.30;;;;;;;18.63;73.20;99913.74;131901;1255;106406;-86
2023/06/18 05:02:04;;;;;;;9.60;8.70;;;;;;;18.75;72.99;99913.86;131859;1255;107418;-86
2023/06/18 05:05:11;;;;;;;9.60;8.70;;;;;;;18.84;72.69;99916.11;131968;1253;107472;-87
2023/06/18 05:08:26;;;;;;;10.00;9.00;;;;;;;18.93;72.88;99915.42;131673;1254;107523;-85
2023/06/18 05:11:38;;;;;;;9.50;8.60;;;;;;;18.98;72.83;99921.10;131650;1255;107508;-85
2023/06/18 05:14:44;;;;;;;9.40;8.20;;;;;;;19.03;72.63;99925.14;131870;1253;107426;-86
2023/06/18 05:17:49;;;;;;;9.60;8.50;;;;;;;19.09;72.43;99925.08;131776;1253;107641;-85
2023/06/18 05:20:57;;;;;;;8.50;7.70;;;;;;;19.18;72.33;99924.59;131776;1253;106037;-85
2023/06/18 05:24:09;;;;;;;10.90;7.60;;;;;;;19.31;72.35;99921.45;131546;1254;108667;-85
2023/06/18 05:27:14;;;;;;;;;;;;;;;19.44;72.41;99925.63;131740;1253;108094;-85
2023/06/18 05:30:19;;;;;;;7.30;6.50;;;;;;;19.52;72.27;99929.56;131644;1256;107589;-85
2023/06/18 05:33:25;;;;;;;7.90;7.20;;;;;;;19.65;72.12;99936.52;131523;1254;107549;-86
2023/06/18 05:36:35;;;;;;;7.10;6.50;;;;;;;19.84;71.92;99937.46;131273;1253;107481;-85
2023/06/18 05:39:41;;;;;;;7.50;6.80;;;;;;;20.00;71.47;99939.98;131463;1251;107210;-86
2023/06/18 05:42:47;;;;;;;6.80;6.20;;;;;;;20.12;71.43;99946.16;131732;1253;107479;-86
2023/06/18 05:45:53;;;;;;;7.10;6.40;;;;;;;20.34;71.10;99947.36;131813;1253;107513;-86
2023/06/18 05:48:59;;;;;;;7.10;6.50;;;;;;;20.46;70.58;99949.06;131958;1253;107426;-86
2023/06/18 05:52:08;;;;;;;7.90;6.30;;;;;;;20.42;69.15;99953.83;131732;1251;108650;-86
2023/06/18 05:55:14;;;;;;;6.80;6.20;;;;;;;20.33;69.84;99954.83;131756;1253;107506;-87
2023/06/18 05:58:24;;;;;;;6.90;6.30;;;;;;;20.44;69.83;99957.67;131679;1253;107559;-86
2023/06/18 06:01:32;;;;;;;7.60;6.90;;;;;;;20.50;69.58;99955.86;131880;1250;107557;-86
2023/06/18 06:04:38;;;;;;;7.90;7.20;;;;;;;20.48;69.17;99958.17;131740;1251;107379;-86
2023/06/18 06:07:44;;;;;;;7.20;6.50;;;;;;;20.52;68.80;99957.91;132089;1251;107218;-86
2023/06/18 06:10:53;;;;;;;8.20;7.50;;;;;;;20.58;69.30;99962.71;131811;1251;107495;-85
2023/06/18 06:14:00;;;;;;;8.10;7.30;;;;;;;20.73;69.41;99959.41;131693;1253;107441;-86
2023/06/18 06:17:06;;;;;;;8.30;7.50;;;;;;;20.90;68.16;99963.42;131470;1257;108113;-86
2023/06/18 06:20:12;;;;;;;8.90;8.10;;;;;;;20.90;68.41;99959.71;131755;1251;107389;-85
2023/06/18 06:23:18;;;;;;;8.70;7.80;;;;;;;21.01;67.50;99962.33;131610;1253;107533;-85
2023/06/18 06:26:24;;;;;;;8.30;7.50;;;;;;;21.00;67.32;99967.02;131640;1251;105665;-87
2023/06/18 06:29:29;;;;;;;8.70;7.90;;;;;;;20.93;66.71;99971.22;131645;1254;106672;-86
2023/06/18 06:32:35;;;;;;;8.60;7.80;;;;;;;20.86;66.98;99969.94;131649;1259;107435;-87
2023/06/18 06:35:41;;;;;;;8.10;7.30;;;;;;;20.84;67.39;99962.95;131764;1253;107495;-85
2023/06/18 06:38:49;;;;;;;8.10;7.40;;;;;;;21.00;67.65;99961.05;131294;1251;107550;-85
2023/06/18 06:41:55;;;;;;;7.80;7.10;;;;;;;21.20;67.53;99962.23;131301;1253;106282;-86
2023/06/18 06:45:09;;;;;;;7.30;6.50;;;;;;;21.31;67.05;99960.53;131530;1253;107519;-86
2023/06/18 06:48:35;;;;;;;8.20;7.50;;;;;;;21.51;67.32;99967.80;131247;1253;107447;-82
2023/06/18 06:51:57;;;;;;;7.10;6.50;;;;;;;21.67;67.29;99968.54;131124;1253;108689;-82
2023/06/18 06:55:03;;;;;;;7.80;7.10;;;;;;;21.85;66.74;99973.27;131122;1253;108691;-82
2023/06/18 06:58:09;;;;;;;7.70;7.00;;;;;;;21.95;66.31;99969.48;131110;1254;107509;-83
2023/06/18 07:01:15;;;;;;;7.70;7.00;;;;;;;22.05;66.51;99965.48;131059;1251;107602;-83
2023/06/18 07:04:20;;;;;;;7.20;6.50;;;;;;;22.13;66.17;99963.62;131066;1254;108145;-82
2023/06/18 07:07:26;;;;;;;7.20;6.60;;;;;;;22.28;66.59;99965.81;131273;1251;107505;-82
2023/06/18 07:10:32;;;;;;;7.50;6.90;;;;;;;22.48;66.20;99967.31;131228;1253;107520;-81
2023/06/18 07:13:37;;;;;;;8.30;7.50;;;;;;;22.54;64.89;99964.16;131134;1257;107295;-80
2023/06/18 07:16:43;;;;;;;8.40;7.60;;;;;;;22.43;63.90;99966.62;131215;1254;107377;-80
2023/06/18 07:19:49;;;;;;;8.80;8.00;;;;;;;22.41;64.51;99965.31;131181;1251;106351;-79
2023/06/18 07:22:55;;;;;;;7.90;7.20;;;;;;;22.49;64.26;99967.06;131181;1257;108084;-82
2023/06/18 07:26:00;;;;;;;7.80;7.10;;;;;;;22.50;63.48;99965.07;131174;1251;107527;-80
2023/06/18 07:29:06;;;;;;;8.60;7.80;;;;;;;22.63;64.55;99967.53;131035;1253;108657;-80
2023/06/18 07:32:11;;;;;;;8.60;7.70;;;;;;;22.86;64.50;99973.05;131163;1253;107588;-81
2023/06/18 07:35:17;;;;;;;8.50;7.70;;;;;;;22.95;62.11;99978.56;131206;1251;107258;-79
2023/06/18 07:38:23;;;;;;;8.10;7.40;;;;;;;22.85;62.21;99978.42;131233;1254;106695;-81
2023/06/18 07:41:29;;;;;;;6.50;6.00;;;;;;;22.79;62.74;99979.14;131157;1254;107411;-80
2023/06/18 07:44:34;;;;;;;7.50;6.90;;;;;;;22.86;63.12;99977.84;131251;1251;107528;-81
2023/06/18 07:47:40;;;;;;;6.80;6.20;;;;;;;23.01;63.11;99980.00;131193;1254;106520;-81
2023/06/18 07:50:46;;;;;;;7.40;6.70;;;;;;;23.24;62.96;99978.34;131412;1253;107580;-84
2023/06/18 07:53:51;;;;;;;8.80;7.60;;;;;;;23.39;62.13;99976.21;131182;1251;107452;-81
2023/06/18 07:56:57;;;;;;;7.00;6.40;;;;;;;23.39;61.39;99980.36;131317;1253;107458;-81
2023/06/18 08:00:02;;;;;;;8.80;8.00;;;;;;;23.41;61.47;99980.98;131083;1251;107521;-81
2023/06/18 08:03:17;;;;;;;7.50;6.90;;;;;;;23.33;61.48;99979.48;131177;1253;107537;-82
2023/06/18 08:06:24;;;;;;;7.90;7.20;;;;;;;23.38;61.84;99979.69;131112;1255;107579;-80
2023/06/18 08:09:30;;;;;;;13.10;7.90;;;;;;;23.58;60.81;99984.23;131175;1253;107377;-81
2023/06/18 08:12:35;;;;;;;7.40;6.70;;;;;;;23.63;60.27;99985.95;131221;1254;107445;-82
2023/06/18 08:15:42;;;;;;;8.60;7.80;;;;;;;23.76;59.99;99983.19;131384;1254;107451;-81
2023/06/18 08:18:47;;;;;;;8.40;7.70;;;;;;;23.75;59.07;99984.84;131136;1254;107428;-81
2023/06/18 08:21:53;;;;;;;8.10;6.60;;;;;;;23.66;59.55;99982.48;131156;1253;107467;-81
2023/06/18 08:24:59;;;;;;;7.00;6.40;;;;;;;23.78;59.25;99982.26;131159;1253;107725;-80
2023/06/18 08:28:04;;;;;;;7.90;7.20;;;;;;;23.84;57.54;99982.84;131207;1254;107554;-81
2023/06/18 08:31:10;;;;;;;12.80;11.60;;;;;;;23.80;57.85;99986.83;131171;1253;107004;-82
2023/06/18 08:34:16;;;;;;;9.30;8.40;;;;;;;23.81;58.08;99988.96;131395;1253;107541;-82
2023/06/18 08:37:21;;;;;;;9.90;8.90;;;;;;;23.89;57.85;99990.23;131176;1253;107528;-81
2023/06/18 08:40:35;;;;;;;10.50;9.00;;;;;;;23.99;57.90;99986.04;131301;1253;107668;-82
2023/06/18 08:43:41;;;;;;;9.00;8.20;;;;;;;24.16;57.42;99990.43;131197;1260;107541;-81
2023/06/18 08:46:50;;;;;;;8.50;7.50;;;;;;;24.19;56.64;99989.55;131100;1257;107420;-81
2023/06/18 08:49:59;;;;;;;7.60;6.80;;;;;;;24.29;57.58;99988.19;131361;1263;107399;-81
2023/06/18 08:53:12;;;;;;;7.70;7.00;;;;;;;24.52;57.63;99985.11;131174;1253;106467;-82
2023/06/18 08:56:21;;;;;;;7.70;6.70;;;;;;;24.69;56.60;99989.61;131295;1254;107539;-82
2023/06/18 08:59:27;;;;;;;8.30;7.60;;;;;;;24.77;55.83;99986.84;131456;1263;107346;-81
2023/06/18 09:02:33;;;;;;;7.50;6.80;;;;;;;24.83;56.19;99987.95;131406;1254;107532;-83
2023/06/18 09:05:40;;;;;;;8.10;7.40;;;;;;;24.89;54.85;99980.66;131227;1253;107209;-81
2023/06/18 09:08:48;;;;;;;8.10;7.30;;;;;;;24.89;54.24;99975.85;131111;1254;107509;-81
2023/06/18 09:11:54;;;;;;;8.00;7.30;;;;;;;24.91;54.08;99975.05;131209;1254;108544;-82
2023/06/18 09:15:01;;;;;;;7.80;7.10;;;;;;;25.00;55.25;99975.21;131319;1254;108624;-82
2023/06/18 09:18:07;;;;;;;7.50;6.90;;;;;;;25.16;53.95;99974.30;131363;1253;107242;-81
2023/06/18 09:21:31;;;;;;;7.00;6.40;;;;;;;25.24;53.49;99977.70;131376;1254;107406;-82
2023/06/18 09:24:37;;;;;;;6.50;5.90;;;;;;;25.43;54.60;99971.27;131328;1257;107245;-82
2023/06/18 09:27:43;;;;;;;5.80;5.30;;;;;;;25.64;54.39;99970.42;131474;1263;107510;-81
2023/06/18 09:30:53;;;;;;;6.10;5.60;;;;;;;25.77;53.97;99971.41;131385;1264;107909;-80
2023/06/18 09:33:59;;;;;;;6.60;6.00;;;;;;;25.81;53.75;99964.55;131458;1263;107499;-81
2023/06/18 09:37:06;;;;;;;5.70;5.20;;;;;;;25.82;51.97;99967.35;131357;1253;107820;-81
2023/06/18 09:40:19;;;;;;;6.30;5.80;;;;;;;25.67;50.17;99962.64;131433;1254;108608;-81
2023/06/18 09:43:32;;;;;;;5.80;5.30;;;;;;;25.53;51.53;99960.04;131383;1249;107902;-81
2023/06/18 09:46:38;;;;;;;5.80;5.40;;;;;;;25.62;52.56;99963.95;131421;1263;107659;-80
2023/06/18 09:49:45;;;;;;;6.30;5.80;;;;;;;25.80;52.67;99962.80;131480;1253;107527;-80
2023/06/18 09:52:53;;;;;;;6.60;5.90;;;;;;;25.96;51.72;99955.96;131508;1263;107525;-81
2023/06/18 09:56:12;;;;;;;5.50;5.00;;;;;;;25.93;50.86;99956.48;131319;1257;107495;-81
2023/06/18 09:59:23;;;;;;;6.40;5.80;;;;;;;25.80;49.51;99956.02;131483;1254;107358;-80
2023/06/18 10:02:28;;;;;;;6.00;5.50;;;;;;;25.67;50.09;99955.97;131345;1253;107338;-79
2023/06/18 10:05:35;;;;;;;5.70;5.20;;;;;;;25.84;50.20;99953.44;131342;1260;107617;-81
2023/06/18 10:08:44;;;;;;;5.60;5.20;;;;;;;26.11;50.70;99948.84;131291;1257;107504;-80
2023/06/18 10:11:52;;;;;;;6.00;5.30;;;;;;;26.38;49.28;99948.06;131421;1264;107359;-80
2023/06/18 10:14:59;;;;;;;7.20;4.90;;;;;;;26.44;48.59;99947.60;131592;1254;107499;-79
2023/06/18 10:18:08;;;;;;;5.90;5.40;;;;;;;26.55;49.55;99943.78;131147;1258;107342;-80
2023/06/18 10:21:15;;;;;;;6.10;5.60;;;;;;;26.77;48.96;99942.25;131130;1264;107584;-78
2023/06/18 10:24:25;;;;;;;6.10;5.50;;;;;;;26.68;47.49;99944.61;131123;1251;107521;-78
2023/06/18 10:27:31;;;;;;;5.70;5.20;;;;;;;26.31;47.70;99945.84;131171;1264;107525;-79
2023/06/18 10:30:37;;;;;;;5.80;5.30;;;;;;;26.12;48.69;99944.15;131132;1257;107439;-78
2023/06/18 10:33:45;;;;;;;5.60;5.00;;;;;;;26.02;48.46;99942.86;131144;1251;107431;-80
2023/06/18 10:36:51;;;;;;;5.80;5.30;;;;;;;25.86;47.62;99941.04;131210;1258;107795;-80
2023/06/18 10:39:57;;;;;;;5.30;4.80;;;;;;;25.64;47.48;99944.04;131255;1264;107380;-81
2023/06/18 10:43:07;;;;;;;5.50;5.10;;;;;;;25.53;48.16;99941.86;131275;1255;107506;-81
2023/06/18 10:46:16;;;;;;;5.50;5.00;;;;;;;25.46;48.20;99936.18;131409;1255;107602;-81
2023/06/18 10:49:21;;;;;;;5.70;5.20;;;;;;;25.38;48.35;99935.17;131400;1251;107227;-80
2023/06/18 10:52:29;;;;;;;5.70;5.20;;;;;;;25.31;48.26;99931.61;131312;1254;107553;-80
2023/06/18 10:55:37;;;;;;;5.60;5.10;;;;;;;25.31;48.20;99929.55;131391;1256;107390;-80
2023/06/18 10:58:43;;;;;;;6.00;5.50;;;;;;;25.41;47.63;99923.67;131205;1263;106543;-83
2023/06/18 11:02:01;;;;;;;5.90;5.40;;;;;;;25.44;47.37;99923.37;131126;1255;107203;-84
2023/06/18 11:05:07;;;;;;;5.90;5.40;;;;;;;25.34;46.47;99918.70;131438;1256;107524;-87
2023/06/18 11:08:14;;;;;;;5.90;5.30;;;;;;;25.26;46.29;99917.30;131464;1263;107507;-82
2023/06/18 11:11:23;;;;;;;4.90;4.50;;;;;;;25.33;47.04;99921.97;131406;1253;105716;-83
2023/06/18 11:14:30;;;;;;;5.30;4.80;;;;;;;25.55;46.19;99916.96;131552;1253;106504;-84
2023/06/18 11:17:36;;;;;;;4.60;4.30;;;;;;;25.72;44.70;99913.81;131467;1256;107533;-85
2023/06/18 11:20:46;;;;;;;4.80;4.40;;;;;;;25.75;44.69;99911.65;131507;1254;107546;-83
2023/06/18 11:23:52;;;;;;;5.00;4.40;;;;;;;25.79;44.50;99906.72;131282;1251;107600;-82
2023/06/18 11:26:59;;;;;;;4.60;4.20;;;;;;;25.87;45.40;99907.86;131318;1253;107947;-84
2023/06/18 11:30:06;;;;;;;4.80;4.30;;;;;;;25.96;45.67;99903.58;131326;1254;108023;-82
2023/06/18 11:33:11;;;;;;;4.50;4.10;;;;;;;25.91;45.11;99902.05;131405;1254;107573;-80
2023/06/18 11:36:19;;;;;;;4.10;3.80;;;;;;;25.82;45.22;99902.31;131431;1263;107516;-85
2023/06/18 11:39:25;;;;;;;4.90;4.40;;;;;;;25.76;45.41;99902.38;131342;1253;107793;-82
2023/06/18 11:42:31;;;;;;;4.10;3.70;;;;;;;25.67;44.49;99904.65;131339;1254;107531;-82
2023/06/18 11:45:37;;;;;;;4.20;3.90;;;;;;;25.66;45.19;99899.66;131292;1251;107477;-84
2023/06/18 11:48:46;;;;;;;4.30;3.90;;;;;;;25.70;44.81;99900.73;133206;1250;107546;-85
2023/06/18 11:51:52;;;;;;;4.60;4.20;;;;;;;25.74;44.81;99899.90;131389;1251;107419;-81
2023/06/18 11:55:05;;;;;;;4.60;4.00;;;;;;;25.70;44.01;99898.94;131244;1253;107375;-81
2023/06/18 11:58:12;;;;;;;4.50;4.10;;;;;;;25.54;44.06;99902.00;131262;1253;106701;-81
2023/06/18 12:01:19;;;;;;;4.00;3.70;;;;;;;25.46;44.07;99903.02;131218;1264;107414;-81
2023/06/18 12:04:29;;;;;;;4.60;4.20;;;;;;;25.52;44.33;99905.56;131186;1251;107527;-81
2023/06/18 12:07:38;;;;;;;4.60;4.00;;;;;;;25.53;43.60;99903.62;131185;1253;108294;-83
2023/06/18 12:10:44;;;;;;;3.90;3.60;;;;;;;25.55;43.20;99902.92;131150;1254;107416;-82
2023/06/18 12:13:52;;;;;;;4.40;4.10;;;;;;;25.67;43.87;99903.89;131196;1249;107558;-82
2023/06/18 12:17:02;;;;;;;4.00;3.70;;;;;;;25.88;44.40;99900.23;131282;1254;108626;-83
2023/06/18 12:20:11;;;;;;;4.00;3.70;;;;;;;26.10;44.42;99895.95;131154;1253;107506;-82
2023/06/18 12:23:17;;;;;;;4.00;3.70;;;;;;;26.32;44.09;99891.20;131166;1254;107514;-82
2023/06/18 12:26:23;;;;;;;4.00;3.60;;;;;;;26.60;43.98;99888.97;131183;1257;107259;-82
2023/06/18 12:29:29;;;;;;;4.10;3.80;;;;;;;26.78;43.23;99886.36;131168;1250;106648;-82
2023/06/18 12:32:36;;;;;;;3.70;3.40;;;;;;;26.91;43.52;99885.08;131108;1251;108003;-82
2023/06/18 12:35:50;;;;;;;3.80;3.50;;;;;;;27.11;42.29;99883.63;131056;1251;108079;-82
2023/06/18 12:38:56;;;;;;;4.00;3.60;;;;;;;27.04;41.74;99883.46;131191;1263;108037;-83
2023/06/18 12:42:01;;;;;;;4.80;3.80;;;;;;;26.94;40.63;99884.59;131231;1251;107717;-82
2023/06/18 12:45:09;;;;;;;3.30;3.00;;;;;;;26.79;40.24;99873.23;131174;1251;108183;-80
2023/06/18 12:48:17;;;;;;;3.80;3.50;;;;;;;26.76;41.31;99873.82;131134;1264;107324;-83
2023/06/18 12:51:39;;;;;;;4.30;4.00;;;;;;;26.57;39.98;99877.09;131214;1253;107469;-81
2023/06/18 12:54:46;;;;;;;4.90;4.40;;;;;;;26.29;41.74;99875.80;131195;1251;107461;-81
2023/06/18 12:57:52;;;;;;;5.30;4.80;;;;;;;26.07;41.25;99881.54;131307;1254;107534;-83
2023/06/18 13:01:00;;;;;;;4.80;4.40;;;;;;;25.81;41.85;99879.95;131366;1254;107225;-83
2023/06/18 13:04:05;;;;;;;6.10;4.90;;;;;;;25.73;42.21;99883.02;131464;1255;107426;-84
2023/06/18 13:07:11;;;;;;;6.00;5.50;;;;;;;25.74;42.33;99885.20;131269;1254;107354;-83
2023/06/18 13:10:17;;;;;;;6.50;5.90;;;;;;;25.77;43.33;99877.89;131133;1251;106775;-85
2023/06/18 13:13:23;;;;;;;6.40;5.90;;;;;;;25.85;43.85;99879.92;131238;1254;107559;-84
2023/06/18 13:16:29;;;;;;;6.80;6.20;;;;;;;26.14;43.93;99886.41;131141;1254;107395;-83
2023/06/18 13:19:34;;;;;;;7.00;5.90;;;;;;;26.34;43.91;99885.84;131244;1254;107484;-82
2023/06/18 13:22:40;;;;;;;7.90;6.70;;;;;;;26.33;43.99;99892.84;131194;1251;107503;-83
2023/06/18 13:25:46;;;;;;;9.90;6.20;;;;;;;26.24;44.11;99908.39;131166;1251;108644;-84
2023/06/18 13:28:51;;;;;;;6.10;5.60;;;;;;;25.89;44.27;99913.95;131328;1253;107628;-82
2023/06/18 13:31:57;;;;;;;6.50;5.70;;;;;;;25.61;44.79;99907.89;131385;1254;107340;-82
2023/06/18 13:35:03;;;;;;;6.40;5.80;;;;;;;25.33;45.24;99914.09;131088;1251;107877;-81
2023/06/18 13:38:09;;;;;;;7.00;5.40;;;;;;;24.73;46.61;99933.90;131220;1251;107497;-81
2023/06/18 13:41:15;;;;;;;7.30;6.10;;;;;;;24.07;46.93;99948.80;131213;1251;107756;-82
2023/06/18 13:44:20;;;;;;;8.90;6.40;;;;;;;23.50;47.40;99952.95;131250;1250;107327;-81
2023/06/18 13:47:26;;;;;;;7.80;6.80;;;;;;;23.07;50.39;99948.44;131292;1251;107229;-81
2023/06/18 13:50:31;;;;;;;7.80;6.90;;;;;;;22.62;51.36;99953.40;131187;1254;107483;-80
2023/06/18 13:53:37;;;;;;;9.60;6.00;;;;;;;22.27;52.59;99970.48;131271;1254;107212;-78
2023/06/18 13:56:42;;;;;;;7.10;5.70;;;;;;;21.83;57.35;99980.34;131010;1264;107486;-78
2023/06/18 13:59:48;;;;;;;7.90;5.60;;;;;;;21.21;57.38;99992.98;131011;1251;107499;-78
2023/06/18 14:02:55;;;;;;;6.20;5.50;;;;;;;20.63;59.91;100009.93;131043;1254;107350;-78
2023/06/18 14:06:00;;;;;;;10.00;5.90;;;;;;;20.26;60.14;100016.54;131031;1254;263597;-78
2023/06/18 14:09:07;;;;;;;15.00;6.10;;;;;;;20.04;57.83;100019.77;131088;1254;107497;-78
2023/06/18 14:12:15;;;;;;;6.50;5.80;;;;;;;20.01;58.77;100021.31;131035;1254;107557;-77
2023/06/18 14:15:20;;;;;;;11.40;6.60;;;;;;;19.97;62.72;100019.02;131160;1254;107444;-78